sensor_id;sensor_type;location;lat;lon;timestamp;pressure;altitude;pressure_sealevel;temperature;humidity
42511;BME280;28141;51.120;17.114;2023-07-13T00:00:06;101191.88;;;33.09;38.29
42511;BME280;28141;51.120;17.114;2023-07-13T00:03:23;101203.11;;;33.04;38.13
42511;BME280;28141;51.120;17.114;2023-07-13T00:07:07;101203.95;;;32.99;38.66
42511;BME280;28141;51.120;17.114;2023-07-13T00:10:22;101192.16;;;33.02;38.31
42511;BME280;28141;51.120;17.114;2023-07-13T00:13:36;101187.95;;;32.99;38.98
42511;BME280;28141;51.120;17.114;2023-07-13T00:16:53;101180.38;;;33.00;38.92
42511;BME280;28141;51.120;17.114;2023-07-13T00:20:35;101187.70;;;32.96;38.74
42511;BME280;28141;51.120;17.114;2023-07-13T00:23:49;101182.92;;;32.91;39.33
42511;BME280;28141;51.120;17.114;2023-07-13T00:27:04;101194.44;;;32.90;38.78
42511;BME280;28141;51.120;17.114;2023-07-13T00:30:18;101195.87;;;32.87;38.94
42511;BME280;28141;51.120;17.114;2023-07-13T00:34:01;101205.41;;;32.86;38.94
42511;BME280;28141;51.120;17.114;2023-07-13T00:37:15;101197.27;;;32.85;38.89
42511;BME280;28141;51.120;17.114;2023-07-13T00:40:29;101193.91;;;32.83;38.77
42511;BME280;28141;51.120;17.114;2023-07-13T00:43:43;101201.20;;;32.84;38.61
42511;BME280;28141;51.120;17.114;2023-07-13T00:47:26;101203.72;;;32.80;39.09
42511;BME280;28141;51.120;17.114;2023-07-13T00:50:40;101196.70;;;32.78;39.39
42511;BME280;28141;51.120;17.114;2023-07-13T00:53:57;101194.21;;;32.76;39.41
42511;BME280;28141;51.120;17.114;2023-07-13T00:57:16;101202.32;;;32.78;39.46
42511;BME280;28141;51.120;17.114;2023-07-13T01:01:00;101235.73;;;32.74;39.22
42511;BME280;28141;51.120;17.114;2023-07-13T01:04:14;101246.38;;;32.72;38.97
42511;BME280;28141;51.120;17.114;2023-07-13T01:07:28;101260.94;;;32.69;39.47
42511;BME280;28141;51.120;17.114;2023-07-13T01:14:35;101212.98;;;32.66;39.41
42511;BME280;28141;51.120;17.114;2023-07-13T01:17:49;101206.23;;;32.67;39.17
42511;BME280;28141;51.120;17.114;2023-07-13T01:21:04;101210.18;;;32.66;39.54
42511;BME280;28141;51.120;17.114;2023-07-13T01:24:18;101211.03;;;32.66;39.75
42511;BME280;28141;51.120;17.114;2023-07-13T01:28:05;101202.89;;;32.64;39.47
42511;BME280;28141;51.120;17.114;2023-07-13T01:31:19;101201.48;;;32.62;39.70
42511;BME280;28141;51.120;17.114;2023-07-13T01:34:33;101193.34;;;32.60;39.47
42511;BME280;28141;51.120;17.114;2023-07-13T01:37:47;101188.02;;;32.59;39.29
42511;BME280;28141;51.120;17.114;2023-07-13T01:41:30;101204.84;;;32.59;39.59
42511;BME280;28141;51.120;17.114;2023-07-13T01:44:43;101193.91;;;32.57;39.31
42511;BME280;28141;51.120;17.114;2023-07-13T01:47:57;101180.15;;;32.56;39.13
42511;BME280;28141;51.120;17.114;2023-07-13T01:51:11;101177.66;;;32.54;39.18
42511;BME280;28141;51.120;17.114;2023-07-13T01:54:53;101177.09;;;32.52;39.68
42511;BME280;28141;51.120;17.114;2023-07-13T01:58:07;101177.65;;;32.49;39.98
42511;BME280;28141;51.120;17.114;2023-07-13T02:01:21;101166.98;;;32.46;39.71
42511;BME280;28141;51.120;17.114;2023-07-13T02:04:36;101178.52;;;32.45;39.59
42511;BME280;28141;51.120;17.114;2023-07-13T02:08:16;101175.70;;;32.40;39.90
42511;BME280;28141;51.120;17.114;2023-07-13T02:11:30;101181.02;;;32.41;39.99
42511;BME280;28141;51.120;17.114;2023-07-13T02:14:46;101168.70;;;32.42;39.63
42511;BME280;28141;51.120;17.114;2023-07-13T02:18:00;101152.70;;;32.38;39.49
42511;BME280;28141;51.120;17.114;2023-07-13T02:21:40;101148.49;;;32.35;40.03
42511;BME280;28141;51.120;17.114;2023-07-13T02:24:54;101153.00;;;32.31;39.93
42511;BME280;28141;51.120;17.114;2023-07-13T02:28:08;101155.23;;;32.29;39.69
42511;BME280;28141;51.120;17.114;2023-07-13T02:31:22;101159.16;;;32.28;39.91
42511;BME280;28141;51.120;17.114;2023-07-13T02:35:04;101150.18;;;32.26;40.22
42511;BME280;28141;51.120;17.114;2023-07-13T02:38:19;101150.18;;;32.26;40.11
42511;BME280;28141;51.120;17.114;2023-07-13T02:41:33;101136.45;;;32.24;40.46
42511;BME280;28141;51.120;17.114;2023-07-13T02:44:47;101142.36;;;32.23;40.32
42511;BME280;28141;51.120;17.114;2023-07-13T02:48:30;101138.71;;;32.22;40.29
42511;BME280;28141;51.120;17.114;2023-07-13T02:51:44;101140.67;;;32.22;40.38
42511;BME280;28141;51.120;17.114;2023-07-13T02:54:58;101158.61;;;32.21;40.27
42511;BME280;28141;51.120;17.114;2023-07-13T02:58:11;101169.83;;;32.21;40.94
42511;BME280;28141;51.120;17.114;2023-07-13T03:01:56;101167.57;;;32.18;40.38
42511;BME280;28141;51.120;17.114;2023-07-13T03:05:10;101165.29;;;32.15;40.70
42511;BME280;28141;51.120;17.114;2023-07-13T03:08:26;101175.38;;;32.16;40.15
42511;BME280;28141;51.120;17.114;2023-07-13T03:11:40;101181.54;;;32.13;40.87
42511;BME280;28141;51.120;17.114;2023-07-13T03:15:21;101178.20;;;32.11;40.56
42511;BME280;28141;51.120;17.114;2023-07-13T03:18:35;101182.97;;;32.10;40.37
42511;BME280;28141;51.120;17.114;2023-07-13T03:21:49;101169.80;;;32.11;40.61
42511;BME280;28141;51.120;17.114;2023-07-13T03:25:04;101165.30;;;32.10;40.06
42511;BME280;28141;51.120;17.114;2023-07-13T03:28:44;101164.16;;;32.16;40.52
42511;BME280;28141;51.120;17.114;2023-07-13T03:31:58;101161.37;;;32.16;40.29
42511;BME280;28141;51.120;17.114;2023-07-13T03:35:12;101164.77;;;32.18;41.09
42511;BME280;28141;51.120;17.114;2023-07-13T03:38:26;101172.34;;;32.17;40.83
42511;BME280;28141;51.120;17.114;2023-07-13T03:42:07;101179.87;;;32.17;40.64
42511;BME280;28141;51.120;17.114;2023-07-13T03:45:21;101178.19;;;32.16;40.84
42511;BME280;28141;51.120;17.114;2023-07-13T03:48:35;101186.03;;;32.14;40.24
42511;BME280;28141;51.120;17.114;2023-07-13T03:51:49;101178.73;;;32.13;41.38
42511;BME280;28141;51.120;17.114;2023-07-13T03:55:29;101171.16;;;32.13;40.92
42511;BME280;28141;51.120;17.114;2023-07-13T03:58:45;101170.90;;;32.15;40.95
42511;BME280;28141;51.120;17.114;2023-07-13T04:02:01;101165.62;;;32.18;41.04
42511;BME280;28141;51.120;17.114;2023-07-13T04:05:15;101163.05;;;32.17;40.96
42511;BME280;28141;51.120;17.114;2023-07-13T04:08:58;101177.66;;;32.19;40.91
42511;BME280;28141;51.120;17.114;2023-07-13T04:12:12;101184.11;;;32.19;41.01
42511;BME280;28141;51.120;17.114;2023-07-13T04:15:30;101188.88;;;32.19;40.72
42511;BME280;28141;51.120;17.114;2023-07-13T04:18:45;101208.78;;;32.27;41.06
42511;BME280;28141;51.120;17.114;2023-07-13T04:22:25;101217.46;;;32.26;40.86
42511;BME280;28141;51.120;17.114;2023-07-13T04:25:43;101222.52;;;32.19;41.06
42511;BME280;28141;51.120;17.114;2023-07-13T04:28:58;101252.75;;;32.17;40.54
42511;BME280;28141;51.120;17.114;2023-07-13T04:32:11;101308.20;;;31.95;41.29
42511;BME280;28141;51.120;17.114;2023-07-13T04:35:53;101342.17;;;31.56;41.63
42511;BME280;28141;51.120;17.114;2023-07-13T04:39:10;101364.99;;;31.33;41.39
42511;BME280;28141;51.120;17.114;2023-07-13T04:42:24;101396.82;;;31.22;41.49
42511;BME280;28141;51.120;17.114;2023-07-13T04:45:38;101447.12;;;31.11;42.56
42511;BME280;28141;51.120;17.114;2023-07-13T04:49:18;101475.72;;;30.92;43.00
42511;BME280;28141;51.120;17.114;2023-07-13T04:52:32;101472.16;;;30.74;43.40
42511;BME280;28141;51.120;17.114;2023-07-13T04:55:46;101475.91;;;30.85;43.31
42511;BME280;28141;51.120;17.114;2023-07-13T04:59:00;101487.36;;;30.83;43.49
42511;BME280;28141;51.120;17.114;2023-07-13T05:02:42;101499.29;;;30.74;43.32
42511;BME280;28141;51.120;17.114;2023-07-13T05:06:02;101492.20;;;30.44;44.04
42511;BME280;28141;51.120;17.114;2023-07-13T05:09:16;101498.76;;;30.11;44.26
42511;BME280;28141;51.120;17.114;2023-07-13T05:12:30;101490.25;;;29.85;44.45
42511;BME280;28141;51.120;17.114;2023-07-13T05:16:10;101477.22;;;29.73;44.56
42511;BME280;28141;51.120;17.114;2023-07-13T05:19:25;101462.27;;;29.63;45.17
42511;BME280;28141;51.120;17.114;2023-07-13T05:22:39;101460.50;;;29.40;45.14
42511;BME280;28141;51.120;17.114;2023-07-13T05:25:53;101456.81;;;29.23;45.00
42511;BME280;28141;51.120;17.114;2023-07-13T05:29:33;101463.55;;;29.10;45.50
42511;BME280;28141;51.120;17.114;2023-07-13T05:32:47;101451.55;;;29.10;45.49
42511;BME280;28141;51.120;17.114;2023-07-13T05:36:01;101416.39;;;28.92;45.66
42511;BME280;28141;51.120;17.114;2023-07-13T05:39:16;101396.13;;;28.96;45.75
42511;BME280;28141;51.120;17.114;2023-07-13T05:42:56;101356.27;;;29.34;45.29
42511;BME280;28141;51.120;17.114;2023-07-13T05:46:10;101331.01;;;29.41;44.68
42511;BME280;28141;51.120;17.114;2023-07-13T05:49:24;101338.20;;;29.37;44.70
42511;BME280;28141;51.120;17.114;2023-07-13T05:52:38;101360.75;;;29.35;44.94
42511;BME280;28141;51.120;17.114;2023-07-13T05:56:17;101369.31;;;29.29;44.96
42511;BME280;28141;51.120;17.114;2023-07-13T05:59:31;101359.63;;;29.53;45.04
42511;BME280;28141;51.120;17.114;2023-07-13T06:02:45;101335.49;;;29.64;44.25
42511;BME280;28141;51.120;17.114;2023-07-13T06:05:59;101309.38;;;29.75;43.54
42511;BME280;28141;51.120;17.114;2023-07-13T06:09:42;101312.18;;;29.75;44.10
42511;BME280;28141;51.120;17.114;2023-07-13T06:12:56;101335.95;;;29.77;43.94
42511;BME280;28141;51.120;17.114;2023-07-13T06:16:11;101352.15;;;29.97;44.38
42511;BME280;28141;51.120;17.114;2023-07-13T06:19:25;101344.80;;;30.13;43.14
42511;BME280;28141;51.120;17.114;2023-07-13T06:23:05;101350.99;;;30.15;43.76
42511;BME280;28141;51.120;17.114;2023-07-13T06:26:20;101355.26;;;30.23;44.40
42511;BME280;28141;51.120;17.114;2023-07-13T06:29:34;101361.17;;;30.26;43.70
42511;BME280;28141;51.120;17.114;2023-07-13T06:32:49;101366.77;;;30.26;43.95
42511;BME280;28141;51.120;17.114;2023-07-13T06:36:29;101376.15;;;30.42;44.04
42511;BME280;28141;51.120;17.114;2023-07-13T06:39:44;101380.04;;;30.41;44.07
42511;BME280;28141;51.120;17.114;2023-07-13T06:42:58;101377.58;;;30.44;44.28
42511;BME280;28141;51.120;17.114;2023-07-13T06:46:12;101388.84;;;30.49;44.46
42511;BME280;28141;51.120;17.114;2023-07-13T06:49:52;101405.79;;;30.65;43.62
42511;BME280;28141;51.120;17.114;2023-07-13T06:55:51;101454.90;;;30.56;43.77
42511;BME280;28141;51.120;17.114;2023-07-13T06:59:05;101460.35;;;30.45;44.09
42511;BME280;28141;51.120;17.114;2023-07-13T07:02:19;101466.20;;;30.22;43.68
42511;BME280;28141;51.120;17.114;2023-07-13T07:05:33;101477.89;;;30.19;43.68
42511;BME280;28141;51.120;17.114;2023-07-13T07:09:12;101490.12;;;30.13;44.17
42511;BME280;28141;51.120;17.114;2023-07-13T07:12:27;101512.48;;;30.13;44.08
42511;BME280;28141;51.120;17.114;2023-07-13T07:15:41;101532.63;;;30.15;44.61
42511;BME280;28141;51.120;17.114;2023-07-13T07:18:55;101544.80;;;30.09;44.18
42511;BME280;28141;51.120;17.114;2023-07-13T07:22:36;101539.16;;;30.04;44.64
42511;BME280;28141;51.120;17.114;2023-07-13T07:25:50;101542.27;;;29.91;43.97
42511;BME280;28141;51.120;17.114;2023-07-13T07:29:05;101540.58;;;29.90;45.85
42511;BME280;28141;51.120;17.114;2023-07-13T07:32:19;101513.49;;;29.90;45.04
42511;BME280;28141;51.120;17.114;2023-07-13T07:36:00;101493.61;;;30.03;44.95
42511;BME280;28141;51.120;17.114;2023-07-13T07:39:14;101453.70;;;30.08;44.59
42511;BME280;28141;51.120;17.114;2023-07-13T07:42:28;101422.53;;;30.16;44.91
42511;BME280;28141;51.120;17.114;2023-07-13T07:45:45;101406.99;;;30.25;44.52
42511;BME280;28141;51.120;17.114;2023-07-13T07:49:25;101367.72;;;30.37;44.52
42511;BME280;28141;51.120;17.114;2023-07-13T07:52:39;101332.68;;;30.29;45.11
42511;BME280;28141;51.120;17.114;2023-07-13T07:55:53;101346.20;;;30.37;44.54
42511;BME280;28141;51.120;17.114;2023-07-13T07:59:07;101342.59;;;30.42;44.97
42511;BME280;28141;51.120;17.114;2023-07-13T08:02:47;101353.59;;;30.48;45.10
42511;BME280;28141;51.120;17.114;2023-07-13T08:06:02;101360.68;;;30.56;44.54
42511;BME280;28141;51.120;17.114;2023-07-13T08:09:16;101382.91;;;30.73;45.38
42511;BME280;28141;51.120;17.114;2023-07-13T08:12:34;101407.09;;;30.84;44.69
42511;BME280;28141;51.120;17.114;2023-07-13T08:16:14;101432.35;;;30.94;44.65
42511;BME280;28141;51.120;17.114;2023-07-13T08:19:27;101426.85;;;31.04;44.12
42511;BME280;28141;51.120;17.114;2023-07-13T08:22:41;101442.63;;;31.10;43.82
42511;BME280;28141;51.120;17.114;2023-07-13T08:25:55;101441.69;;;31.05;44.89
42511;BME280;28141;51.120;17.114;2023-07-13T08:29:37;101457.11;;;31.07;44.89
42511;BME280;28141;51.120;17.114;2023-07-13T08:32:53;101463.71;;;30.96;44.60
42511;BME280;28141;51.120;17.114;2023-07-13T08:36:07;101470.25;;;31.07;44.37
42511;BME280;28141;51.120;17.114;2023-07-13T08:39:21;101483.01;;;31.19;44.74
42511;BME280;28141;51.120;17.114;2023-07-13T08:43:02;101481.41;;;31.29;44.50
42511;BME280;28141;51.120;17.114;2023-07-13T08:46:24;101492.40;;;31.35;44.44
42511;BME280;28141;51.120;17.114;2023-07-13T08:49:39;101493.79;;;31.38;44.11
42511;BME280;28141;51.120;17.114;2023-07-13T08:52:55;101500.30;;;31.43;44.17
42511;BME280;28141;51.120;17.114;2023-07-13T08:56:36;101498.95;;;31.51;44.23
42511;BME280;28141;51.120;17.114;2023-07-13T08:59:50;101506.56;;;31.55;43.97
42511;BME280;28141;51.120;17.114;2023-07-13T09:03:12;101507.70;;;31.60;44.25
42511;BME280;28141;51.120;17.114;2023-07-13T09:06:34;101519.13;;;31.80;43.43
42511;BME280;28141;51.120;17.114;2023-07-13T09:17:12;101520.05;;;31.96;43.09
42511;BME280;28141;51.120;17.114;2023-07-13T09:21:00;101522.64;;;32.07;43.02
42511;BME280;28141;51.120;17.114;2023-07-13T09:24:27;101525.49;;;32.12;42.82
42511;BME280;28141;51.120;17.114;2023-07-13T09:27:43;101509.50;;;32.13;42.91
42511;BME280;28141;51.120;17.114;2023-07-13T09:31:32;101517.98;;;32.18;42.86
42511;BME280;28141;51.120;17.114;2023-07-13T09:34:53;101520.11;;;32.06;42.38
42511;BME280;28141;51.120;17.114;2023-07-13T09:38:13;101515.95;;;32.13;42.45
42511;BME280;28141;51.120;17.114;2023-07-13T09:42:07;101516.34;;;32.27;42.21
42511;BME280;28141;51.120;17.114;2023-07-13T09:45:28;101511.84;;;32.26;42.00
42511;BME280;28141;51.120;17.114;2023-07-13T09:48:43;101504.59;;;32.30;42.04
42511;BME280;28141;51.120;17.114;2023-07-13T09:52:24;101500.18;;;32.44;41.92
42511;BME280;28141;51.120;17.114;2023-07-13T09:55:42;101494.57;;;32.49;42.24
42511;BME280;28141;51.120;17.114;2023-07-13T09:58:57;101492.62;;;32.50;41.17
42511;BME280;28141;51.120;17.114;2023-07-13T10:06:13;101497.87;;;32.36;41.60
42511;BME280;28141;51.120;17.114;2023-07-13T10:09:27;101492.57;;;32.40;41.31
42511;BME280;28141;51.120;17.114;2023-07-13T10:12:41;101497.91;;;32.46;40.89
42511;BME280;28141;51.120;17.114;2023-07-13T10:15:56;101494.57;;;32.44;41.26
42511;BME280;28141;51.120;17.114;2023-07-13T10:19:38;101496.53;;;32.49;41.25
42511;BME280;28141;51.120;17.114;2023-07-13T10:23:02;101510.28;;;32.50;40.33
42511;BME280;28141;51.120;17.114;2023-07-13T10:26:33;101515.36;;;32.53;41.40
42511;BME280;28141;51.120;17.114;2023-07-13T10:33:33;101516.52;;;32.68;41.14
42511;BME280;28141;51.120;17.114;2023-07-13T10:36:48;101506.50;;;32.77;40.70
42511;BME280;28141;51.120;17.114;2023-07-13T10:40:35;101515.48;;;32.84;39.74
42511;BME280;28141;51.120;17.114;2023-07-13T10:43:52;101518.29;;;32.89;39.39
42511;BME280;28141;51.120;17.114;2023-07-13T10:47:13;101516.66;;;32.98;39.52
42511;BME280;28141;51.120;17.114;2023-07-13T10:50:55;101522.28;;;33.08;39.08
42511;BME280;28141;51.120;17.114;2023-07-13T10:54:17;101501.52;;;33.19;38.81
42511;BME280;28141;51.120;17.114;2023-07-13T10:57:41;101504.91;;;33.31;38.47
42511;BME280;28141;51.120;17.114;2023-07-13T11:01:23;101515.59;;;33.34;38.37
42511;BME280;28141;51.120;17.114;2023-07-13T11:04:45;101504.10;;;33.41;38.36
42511;BME280;28141;51.120;17.114;2023-07-13T11:12:00;101512.22;;;33.43;38.19
42511;BME280;28141;51.120;17.114;2023-07-13T11:15:15;101503.52;;;33.59;37.76
42511;BME280;28141;51.120;17.114;2023-07-13T11:18:33;101510.81;;;33.65;38.13
42511;BME280;28141;51.120;17.114;2023-07-13T11:25:42;101518.40;;;33.65;36.93
42511;BME280;28141;51.120;17.114;2023-07-13T11:28:56;101517.29;;;33.76;37.15
42511;BME280;28141;51.120;17.114;2023-07-13T11:39:37;101518.15;;;33.77;36.52
42511;BME280;28141;51.120;17.114;2023-07-13T11:43:01;101521.23;;;33.80;35.90
42511;BME280;28141;51.120;17.114;2023-07-13T11:46:49;101522.36;;;33.79;35.55
42511;BME280;28141;51.120;17.114;2023-07-13T11:50:16;101523.74;;;33.87;35.78
42511;BME280;28141;51.120;17.114;2023-07-13T11:53:27;101515.33;;;33.92;35.70
42511;BME280;28141;51.120;17.114;2023-07-13T12:00:37;101522.04;;;34.01;36.40
42511;BME280;28141;51.120;17.114;2023-07-13T12:03:54;101523.45;;;33.98;36.23
42511;BME280;28141;51.120;17.114;2023-07-13T12:07:34;101522.88;;;34.01;36.29
42511;BME280;28141;51.120;17.114;2023-07-13T12:10:47;101520.33;;;34.10;36.42
42511;BME280;28141;51.120;17.114;2023-07-13T12:14:01;101523.99;;;34.16;36.21
42511;BME280;28141;51.120;17.114;2023-07-13T12:17:22;101514.95;;;34.29;36.16
42511;BME280;28141;51.120;17.114;2023-07-13T12:21:02;101522.55;;;34.33;36.17
42511;BME280;28141;51.120;17.114;2023-07-13T12:24:21;101517.20;;;34.37;36.01
42511;BME280;28141;51.120;17.114;2023-07-13T12:27:36;101509.00;;;34.40;36.32
42511;BME280;28141;51.120;17.114;2023-07-13T12:31:25;101514.34;;;34.42;35.93
42511;BME280;28141;51.120;17.114;2023-07-13T12:38:09;101511.16;;;34.64;35.65
42511;BME280;28141;51.120;17.114;2023-07-13T12:41:50;101510.17;;;34.94;34.82
42511;BME280;28141;51.120;17.114;2023-07-13T12:48:39;101510.17;;;34.94;34.41
42511;BME280;28141;51.120;17.114;2023-07-13T12:52:28;101518.09;;;34.92;33.92
42511;BME280;28141;51.120;17.114;2023-07-13T12:55:52;101509.66;;;34.87;33.88
42511;BME280;28141;51.120;17.114;2023-07-13T12:59:16;101512.19;;;34.88;33.62
42511;BME280;28141;51.120;17.114;2023-07-13T13:02:56;101500.64;;;34.90;33.59
42511;BME280;28141;51.120;17.114;2023-07-13T13:09:36;101500.21;;;35.11;33.84
42511;BME280;28141;51.120;17.114;2023-07-13T13:13:15;101494.30;;;35.13;33.26
42511;BME280;28141;51.120;17.114;2023-07-13T13:16:34;101495.87;;;35.29;33.04
42511;BME280;28141;51.120;17.114;2023-07-13T13:19:48;101498.90;;;35.38;33.50
42511;BME280;28141;51.120;17.114;2023-07-13T13:23:04;101494.71;;;35.35;33.11
42511;BME280;28141;51.120;17.114;2023-07-13T13:26:44;101489.74;;;35.56;33.45
42511;BME280;28141;51.120;17.114;2023-07-13T13:30:00;101483.16;;;35.66;33.14
42511;BME280;28141;51.120;17.114;2023-07-13T13:33:16;101490.15;;;35.73;33.07
42511;BME280;28141;51.120;17.114;2023-07-13T13:36:30;101488.99;;;35.79;33.03
42511;BME280;28141;51.120;17.114;2023-07-13T13:40:16;101494.16;;;35.96;32.72
42511;BME280;28141;51.120;17.114;2023-07-13T13:43:32;101485.40;;;35.98;32.48
42511;BME280;28141;51.120;17.114;2023-07-13T13:46:48;101489.71;;;36.14;32.34
42511;BME280;28141;51.120;17.114;2023-07-13T13:50:13;101489.95;;;36.23;31.75
42511;BME280;28141;51.120;17.114;2023-07-13T13:53:57;101487.59;;;36.30;31.54
42511;BME280;28141;51.120;17.114;2023-07-13T13:57:11;101475.62;;;36.38;30.91
42511;BME280;28141;51.120;17.114;2023-07-13T14:00:26;101467.02;;;36.48;30.88
42511;BME280;28141;51.120;17.114;2023-07-13T14:03:40;101472.96;;;36.70;30.76
42511;BME280;28141;51.120;17.114;2023-07-13T14:06:55;101467.94;;;36.86;30.57
42511;BME280;28141;51.120;17.114;2023-07-13T14:10:37;101461.05;;;36.92;30.17
42511;BME280;28141;51.120;17.114;2023-07-13T14:13:54;101451.05;;;37.00;29.96
42511;BME280;28141;51.120;17.114;2023-07-13T14:17:18;101449.83;;;37.06;29.80
42511;BME280;28141;51.120;17.114;2023-07-13T14:20:35;101449.59;;;37.02;29.43
42511;BME280;28141;51.120;17.114;2023-07-13T14:24:15;101459.98;;;37.25;29.72
42511;BME280;28141;51.120;17.114;2023-07-13T14:27:29;101465.15;;;37.37;29.40
42511;BME280;28141;51.120;17.114;2023-07-13T14:30:43;101471.58;;;37.56;29.45
42511;BME280;28141;51.120;17.114;2023-07-13T14:33:57;101467.62;;;37.57;29.15
42511;BME280;28141;51.120;17.114;2023-07-13T14:37:36;101452.77;;;37.66;28.92
42511;BME280;28141;51.120;17.114;2023-07-13T14:40:50;101445.09;;;37.85;28.72
42511;BME280;28141;51.120;17.114;2023-07-13T14:47:29;101451.03;;;37.97;28.13
42511;BME280;28141;51.120;17.114;2023-07-13T14:51:09;101459.78;;;38.14;27.85
42511;BME280;28141;51.120;17.114;2023-07-13T14:54:24;101450.15;;;38.15;27.60
42511;BME280;28141;51.120;17.114;2023-07-13T14:57:38;101452.85;;;38.07;27.61
42511;BME280;28141;51.120;17.114;2023-07-13T15:00:52;101451.48;;;38.04;27.82
42511;BME280;28141;51.120;17.114;2023-07-13T15:04:37;101452.22;;;37.96;27.62
42511;BME280;28141;51.120;17.114;2023-07-13T15:07:52;101453.67;;;37.93;27.68
42511;BME280;28141;51.120;17.114;2023-07-13T15:11:08;101450.73;;;37.98;27.68
42511;BME280;28141;51.120;17.114;2023-07-13T15:14:25;101458.27;;;37.89;27.74
42511;BME280;28141;51.120;17.114;2023-07-13T15:18:07;101452.51;;;37.81;27.78
42511;BME280;28141;51.120;17.114;2023-07-13T15:21:24;101457.94;;;37.77;27.62
42511;BME280;28141;51.120;17.114;2023-07-13T15:24:38;101449.67;;;37.81;27.85
42511;BME280;28141;51.120;17.114;2023-07-13T15:27:53;101444.85;;;37.81;27.93
42511;BME280;28141;51.120;17.114;2023-07-13T15:31:34;101441.29;;;37.89;27.77
42511;BME280;28141;51.120;17.114;2023-07-13T15:34:52;101442.88;;;37.82;27.87
42511;BME280;28141;51.120;17.114;2023-07-13T15:38:20;101425.78;;;37.87;27.80
42511;BME280;28141;51.120;17.114;2023-07-13T15:42:00;101437.63;;;37.89;27.77
42511;BME280;28141;51.120;17.114;2023-07-13T15:45:23;101430.96;;;38.12;27.67
42511;BME280;28141;51.120;17.114;2023-07-13T15:48:41;101438.08;;;38.23;27.34
42511;BME280;28141;51.120;17.114;2023-07-13T15:52:23;101441.00;;;38.32;27.48
42511;BME280;28141;51.120;17.114;2023-07-13T15:55:39;101438.16;;;38.46;27.11
42511;BME280;28141;51.120;17.114;2023-07-13T15:58:55;101457.15;;;38.59;27.35
42511;BME280;28141;51.120;17.114;2023-07-13T16:02:19;101456.36;;;38.81;26.92
42511;BME280;28141;51.120;17.114;2023-07-13T16:05:59;101460.41;;;39.02;27.07
42511;BME280;28141;51.120;17.114;2023-07-13T16:09:21;101461.37;;;39.20;26.83
42511;BME280;28141;51.120;17.114;2023-07-13T16:12:35;101465.62;;;39.31;26.87
42511;BME280;28141;51.120;17.114;2023-07-13T16:15:50;101472.74;;;39.42;26.71
42511;BME280;28141;51.120;17.114;2023-07-13T16:19:31;101477.86;;;39.62;26.70
42511;BME280;28141;51.120;17.114;2023-07-13T16:22:50;101481.45;;;39.76;26.44
42511;BME280;28141;51.120;17.114;2023-07-13T16:26:15;101472.08;;;39.67;26.64
42511;BME280;28141;51.120;17.114;2023-07-13T16:29:56;101477.25;;;39.43;26.63
42511;BME280;28141;51.120;17.114;2023-07-13T16:33:11;101478.63;;;39.32;26.79
42511;BME280;28141;51.120;17.114;2023-07-13T16:36:26;101483.09;;;39.24;27.05
42511;BME280;28141;51.120;17.114;2023-07-13T16:39:44;101487.66;;;39.34;26.84
42511;BME280;28141;51.120;17.114;2023-07-13T16:43:25;101484.94;;;39.29;26.89
42511;BME280;28141;51.120;17.114;2023-07-13T16:46:39;101483.62;;;39.26;27.16
42511;BME280;28141;51.120;17.114;2023-07-13T16:49:56;101485.20;;;39.19;26.89
42511;BME280;28141;51.120;17.114;2023-07-13T16:57:19;101495.91;;;39.22;27.07
42511;BME280;28141;51.120;17.114;2023-07-13T17:00:35;101489.96;;;39.10;27.20
42511;BME280;28141;51.120;17.114;2023-07-13T17:03:50;101492.63;;;38.92;27.38
42511;BME280;28141;51.120;17.114;2023-07-13T17:07:39;101498.33;;;38.79;27.53
42511;BME280;28141;51.120;17.114;2023-07-13T17:10:55;101498.77;;;38.72;27.62
42511;BME280;28141;51.120;17.114;2023-07-13T17:14:17;101502.83;;;38.80;28.08
42511;BME280;28141;51.120;17.114;2023-07-13T17:18:03;101495.94;;;38.72;27.74
42511;BME280;28141;51.120;17.114;2023-07-13T17:21:21;101494.74;;;38.73;27.67
42511;BME280;28141;51.120;17.114;2023-07-13T17:24:35;101491.42;;;38.71;27.85
42511;BME280;28141;51.120;17.114;2023-07-13T17:27:49;101482.33;;;38.60;28.00
42511;BME280;28141;51.120;17.114;2023-07-13T17:31:32;101497.95;;;38.58;27.95
42511;BME280;28141;51.120;17.114;2023-07-13T17:34:46;101501.49;;;38.63;27.67
42511;BME280;28141;51.120;17.114;2023-07-13T17:38:03;101501.72;;;38.53;28.04
42511;BME280;28141;51.120;17.114;2023-07-13T17:41:19;101504.33;;;38.50;28.28
42511;BME280;28141;51.120;17.114;2023-07-13T17:45:00;101504.20;;;38.41;28.17
42511;BME280;28141;51.120;17.114;2023-07-13T17:48:14;101507.56;;;38.29;28.29
42511;BME280;28141;51.120;17.114;2023-07-13T17:51:28;101513.34;;;38.24;28.21
42511;BME280;28141;51.120;17.114;2023-07-13T17:54:42;101502.76;;;38.16;28.27
42511;BME280;28141;51.120;17.114;2023-07-13T17:58:22;101509.43;;;38.07;28.59
42511;BME280;28141;51.120;17.114;2023-07-13T18:01:39;101498.51;;;38.00;28.57
42511;BME280;28141;51.120;17.114;2023-07-13T18:04:54;101503.34;;;37.99;28.58
42511;BME280;28141;51.120;17.114;2023-07-13T18:12:01;101521.95;;;37.73;29.03
42511;BME280;28141;51.120;17.114;2023-07-13T18:15:15;101525.69;;;37.69;29.27
42511;BME280;28141;51.120;17.114;2023-07-13T18:18:29;101524.98;;;37.58;28.93
42511;BME280;28141;51.120;17.114;2023-07-13T18:21:47;101537.32;;;37.48;29.45
42511;BME280;28141;51.120;17.114;2023-07-13T18:25:27;101539.16;;;37.39;29.42